Terminal Aerodrome Forecast
Issued by NWS Charleston, WV

Current Version | Previous Version | Graphics & Text | Print | Product List | Glossary On
Versions: 1 2 3 4 5 6 7 8 9 10 11 12 13 14 15 16 17 18 19 20 21 22 23 24 25 26 27 28 29
000
FTUS41 KRLX 251100
TAFBKW
TAF
KBKW 251129Z 2512/2612 15005KT 6SM SHRA OVC060
     FM251400 13010KT P6SM VCSH OVC040
     FM252000 14010G17KT P6SM BKN015
     FM260300 15006KT 4SM SHRA BR VCTS OVC010CB
     FM260600 14005KT 3SM SHRA BR OVC008=

USA.gov is the U.S. government's official web portal to all federal, state and local government web resources and services.